Portada
METAR-TAF:

METAR-TAF

Aeroports :

Norwood Memorial Airport

Norwood, Massachusetts, Estats Units d'Amèrica

latitud: 42-11-27N, longitud: 071-10-26W, altitud: 15 m

Observació

L'informe es va fer fa 1 hora i 20 minuts, a les 19:00 UTC
Vent 10 kt del Sud amb ràfegues de 17 kt
Temperatura 17°C
Humitat 82%
Pressió 1014 hPa
Visibilitat: 16.1 km
Cel ennuvolat a una alçada de 1200 ft
Cel cobert a una alçada de 1900 ft

METAR: KOWD 261900Z 19010G17KT 10SM BKN012 OVC019 17/14 A2993 RMK AO2 T01670139

Hora: 15:20 (20:20 UTC)


TAF: manca

Observacions i pronòstics meteorològics de més de 4000 aeroports (METAR i TAF).

Les estacions disponibles són els punts grocs i vermells al mapa.

Posi el ratolí al punt desitjat per veure el nom de l'estació.

Feu clic per veure les observacions i els pronòstics meteorològics.

Per canviar el mapa: feu clic els botons verds amb una creu de color negre per apropar; al botó verd amb un guió per allunyar la imatge; o en les fletxes verdes per a mapes adjacents.


METAR-TAF: